createdAt,value
2023-01-29T00:00:42.057Z,36.17
2023-01-29T00:03:12.829Z,36.22
2023-01-29T00:05:50.720Z,36.24
2023-01-29T00:08:21.168Z,36.30
2023-01-29T00:10:49.361Z,36.21
2023-01-29T00:13:19.843Z,36.59
2023-01-29T00:16:00.533Z,36.77
2023-01-29T00:18:29.811Z,36.22
2023-01-29T00:20:57.638Z,36.49
2023-01-29T00:23:27.690Z,36.82
2023-01-29T00:26:03.543Z,36.77
2023-01-29T00:28:34.230Z,36.54
2023-01-29T00:31:19.982Z,36.69
2023-01-29T00:33:52.182Z,37.26
2023-01-29T00:36:23.393Z,36.97
2023-01-29T00:39:07.462Z,36.73
2023-01-29T00:42:01.510Z,36.57
2023-01-29T00:44:55.225Z,36.83
2023-01-29T00:47:38.938Z,36.94
2023-01-29T00:50:19.839Z,36.91
2023-01-29T00:52:56.468Z,36.84
2023-01-29T00:55:27.548Z,37.24
2023-01-29T00:58:04.141Z,37.50
2023-01-29T01:00:40.134Z,36.89
2023-01-29T01:03:13.997Z,37.18
2023-01-29T01:05:49.727Z,37.53
2023-01-29T01:08:46.361Z,37.50
2023-01-29T01:11:21.436Z,37.47
2023-01-29T01:13:49.031Z,37.34
2023-01-29T01:16:27.572Z,37.44
2023-01-29T01:19:06.816Z,37.51
2023-01-29T01:21:50.022Z,37.67
2023-01-29T01:24:25.548Z,37.91
2023-01-29T01:26:59.158Z,37.56
2023-01-29T01:29:36.216Z,37.32
2023-01-29T01:32:26.935Z,37.31
2023-01-29T01:35:05.897Z,37.10
2023-01-29T01:37:43.996Z,37.20
2023-01-29T01:40:24.809Z,37.22
2023-01-29T01:43:05.007Z,36.99
2023-01-29T01:45:40.386Z,37.00
2023-01-29T01:48:19.960Z,37.34
2023-01-29T01:50:57.193Z,37.26
2023-01-29T01:54:06.274Z,37.13
2023-01-29T01:56:55.739Z,37.11
2023-01-29T02:02:50.840Z,36.95
2023-01-29T02:05:37.352Z,37.54
2023-01-29T02:08:26.353Z,37.42
2023-01-29T02:10:59.049Z,37.34
2023-01-29T02:13:53.848Z,37.71
2023-01-29T02:16:40.539Z,37.11
2023-01-29T02:19:25.450Z,37.43
2023-01-29T02:22:35.296Z,37.42
2023-01-29T02:25:22.152Z,38.06
2023-01-29T02:27:50.520Z,37.42
2023-01-29T02:30:43.393Z,37.26
2023-01-29T02:36:33.146Z,37.48
2023-01-29T02:39:37.953Z,37.36
2023-01-29T02:42:23.363Z,37.74
2023-01-29T02:45:17.253Z,37.83
2023-01-29T02:48:11.726Z,37.82
2023-01-29T02:51:02.511Z,37.22
2023-01-29T02:53:46.204Z,37.45
2023-01-29T02:56:41.400Z,38.02
2023-01-29T02:59:55.301Z,37.44
2023-01-29T03:02:47.117Z,37.36
2023-01-29T03:06:04.392Z,37.52
2023-01-29T03:08:50.359Z,36.98
2023-01-29T03:11:32.862Z,37.21
2023-01-29T03:14:07.908Z,36.90
2023-01-29T03:16:49.470Z,36.99
2023-01-29T03:19:36.874Z,36.92
2023-01-29T03:22:25.638Z,36.89
2023-01-29T03:25:41.861Z,37.24
2023-01-29T03:28:41.139Z,37.33
2023-01-29T03:31:36.243Z,37.27
2023-01-29T03:34:30.598Z,37.21
2023-01-29T03:37:14.246Z,37.39
2023-01-29T03:39:45.140Z,37.12
2023-01-29T03:42:38.857Z,37.07
2023-01-29T03:45:20.938Z,37.26
2023-01-29T03:48:33.355Z,37.70
2023-01-29T03:51:21.617Z,37.86
2023-01-29T03:54:09.972Z,37.60
2023-01-29T03:57:19.185Z,37.44
2023-01-29T04:00:03.345Z,37.21
2023-01-29T04:03:10.441Z,36.90
2023-01-29T04:06:01.755Z,37.21
2023-01-29T04:08:42.506Z,37.46
2023-01-29T04:11:18.073Z,37.44
2023-01-29T04:13:53.856Z,37.43
2023-01-29T04:16:37.988Z,37.48
2023-01-29T04:19:29.113Z,37.41
2023-01-29T04:22:14.559Z,37.27
2023-01-29T04:24:52.596Z,37.10
2023-01-29T04:27:36.931Z,37.46
2023-01-29T04:30:34.082Z,37.15
2023-01-29T04:33:38.476Z,36.96
2023-01-29T04:36:28.773Z,36.82
2023-01-29T04:39:28.692Z,37.16
2023-01-29T04:42:11.170Z,37.40
2023-01-29T04:48:43.635Z,37.15
2023-01-29T04:51:19.760Z,37.34
2023-01-29T04:54:18.775Z,37.19
2023-01-29T04:57:36.660Z,37.22
2023-01-29T05:00:19.615Z,37.31
2023-01-29T05:02:49.690Z,37.12
2023-01-29T05:05:26.019Z,37.23
2023-01-29T05:07:59.464Z,37.43
2023-01-29T05:10:39.205Z,37.45
2023-01-29T05:13:11.067Z,37.28
2023-01-29T05:16:00.224Z,37.56
2023-01-29T05:18:36.362Z,37.36
2023-01-29T05:21:12.159Z,36.98
2023-01-29T05:23:46.844Z,37.25
2023-01-29T05:26:45.432Z,37.24
2023-01-29T05:29:18.307Z,37.28
2023-01-29T05:31:46.281Z,37.59
2023-01-29T05:34:13.919Z,36.74
2023-01-29T05:36:45.458Z,37.34
2023-01-29T05:39:22.387Z,37.35
2023-01-29T05:41:57.014Z,37.22
2023-01-29T05:44:27.884Z,37.49
2023-01-29T05:47:24.857Z,37.77
2023-01-29T05:49:55.463Z,37.04
2023-01-29T05:52:22.780Z,37.06
2023-01-29T05:54:56.244Z,37.28
2023-01-29T05:57:29.035Z,37.02
2023-01-29T06:00:02.331Z,37.19
2023-01-29T06:02:53.067Z,37.30
2023-01-29T06:05:23.338Z,37.56
2023-01-29T06:07:52.331Z,37.34
2023-01-29T06:10:20.506Z,37.98
2023-01-29T06:12:48.491Z,37.51
2023-01-29T06:15:17.070Z,37.39
2023-01-29T06:17:44.247Z,37.25
2023-01-29T06:20:15.153Z,37.02
2023-01-29T06:22:55.623Z,36.95
2023-01-29T06:25:37.583Z,36.83
2023-01-29T06:28:05.186Z,37.24
2023-01-29T06:30:32.882Z,36.80
2023-01-29T06:33:09.311Z,36.93
2023-01-29T06:35:56.949Z,36.91
2023-01-29T06:38:27.844Z,37.10
2023-01-29T06:41:01.647Z,37.48
2023-01-29T06:43:28.900Z,37.32
2023-01-29T06:46:08.034Z,37.59
2023-01-29T06:48:41.270Z,37.52
2023-01-29T06:51:13.314Z,37.85
2023-01-29T06:54:13.634Z,37.69
2023-01-29T06:56:41.424Z,37.70
2023-01-29T06:59:32.609Z,38.12
2023-01-29T07:02:06.045Z,37.67
2023-01-29T07:04:35.845Z,38.28
2023-01-29T07:07:21.170Z,37.65
2023-01-29T07:09:55.402Z,37.67
2023-01-29T07:12:31.824Z,37.68
2023-01-29T07:15:05.970Z,37.98
2023-01-29T07:17:42.783Z,37.72
2023-01-29T07:20:19.760Z,37.89
2023-01-29T07:22:52.002Z,38.31
2023-01-29T07:25:37.335Z,38.16
2023-01-29T07:28:08.068Z,37.72
2023-01-29T07:30:38.292Z,37.95
2023-01-29T07:33:13.102Z,37.86
2023-01-29T07:35:50.234Z,38.03
2023-01-29T07:38:21.530Z,38.46
2023-01-29T07:40:58.882Z,38.14
2023-01-29T07:43:36.197Z,38.05
2023-01-29T07:46:09.657Z,38.43
2023-01-29T07:48:50.257Z,38.11
2023-01-29T07:51:24.813Z,38.20
2023-01-29T07:53:59.697Z,38.65
2023-01-29T07:56:32.312Z,38.55
2023-01-29T07:59:10.975Z,38.36
2023-01-29T08:01:38.296Z,38.60
2023-01-29T08:04:05.740Z,38.19
2023-01-29T08:06:38.711Z,38.68
2023-01-29T08:09:13.930Z,38.38
2023-01-29T08:11:41.249Z,38.79
2023-01-29T08:14:13.936Z,38.50
2023-01-29T08:16:46.168Z,38.79
2023-01-29T08:19:28.057Z,39.31
2023-01-29T08:22:08.742Z,39.32
2023-01-29T08:24:53.335Z,39.03
2023-01-29T08:27:32.549Z,39.09
2023-01-29T08:30:00.177Z,39.62
2023-01-29T08:32:32.771Z,39.57
2023-01-29T08:35:00.589Z,39.04
2023-01-29T08:37:30.573Z,38.97
2023-01-29T08:40:03.894Z,38.60
2023-01-29T08:42:44.968Z,39.25
2023-01-29T08:45:12.609Z,38.83
2023-01-29T08:47:52.459Z,38.73
2023-01-29T08:50:25.014Z,37.98
2023-01-29T08:52:59.896Z,37.26
2023-01-29T08:55:29.490Z,37.05
2023-01-29T08:58:05.868Z,36.55
2023-01-29T09:00:52.688Z,35.46
2023-01-29T09:06:04.616Z,35.48
2023-01-29T09:08:34.763Z,34.89
2023-01-29T09:11:11.420Z,34.74
2023-01-29T09:13:52.865Z,34.35
2023-01-29T09:16:39.957Z,34.44
2023-01-29T09:19:17.795Z,34.28
2023-01-29T09:21:45.003Z,34.02
2023-01-29T09:24:12.316Z,34.26
2023-01-29T09:26:46.920Z,33.77
2023-01-29T09:32:00.988Z,33.85
2023-01-29T09:34:35.764Z,34.07
2023-01-29T09:37:05.912Z,34.17
2023-01-29T09:39:40.411Z,34.24
2023-01-29T09:42:27.952Z,34.12
2023-01-29T09:48:19.327Z,34.52
2023-01-29T09:51:41.719Z,34.26
2023-01-29T09:54:36.493Z,33.90
2023-01-29T09:57:17.700Z,34.03
2023-01-29T09:59:45.191Z,33.65
2023-01-29T10:02:52.146Z,33.08
2023-01-29T10:06:03.895Z,32.79
2023-01-29T10:09:03.943Z,33.21
2023-01-29T10:11:58.201Z,32.57
2023-01-29T10:15:00.302Z,32.30
2023-01-29T10:18:14.648Z,31.96
2023-01-29T10:21:16.038Z,32.17
2023-01-29T10:24:02.029Z,32.99
2023-01-29T10:26:40.961Z,32.20
2023-01-29T10:29:18.408Z,31.66
2023-01-29T10:32:10.187Z,31.35
2023-01-29T10:35:04.237Z,30.16
2023-01-29T10:37:45.446Z,29.53
2023-01-29T10:40:42.040Z,28.93
2023-01-29T10:46:39.033Z,28.32
2023-01-29T10:49:25.021Z,27.81
2023-01-29T10:52:07.409Z,28.55
2023-01-29T10:54:51.592Z,27.72
2023-01-29T10:57:45.806Z,27.05
2023-01-29T11:00:26.961Z,26.30
2023-01-29T11:03:04.258Z,26.90
2023-01-29T11:05:47.647Z,25.72
2023-01-29T11:08:23.325Z,25.92
2023-01-29T11:12:00.422Z,24.48
2023-01-29T11:14:33.841Z,24.64
2023-01-29T11:17:01.297Z,24.42
2023-01-29T11:19:43.530Z,23.83
2023-01-29T11:22:16.825Z,23.60
2023-01-29T11:24:49.650Z,24.25
2023-01-29T11:27:32.162Z,22.37
2023-01-29T11:30:07.803Z,23.08
2023-01-29T11:32:51.273Z,23.13
2023-01-29T11:35:25.469Z,22.14
2023-01-29T11:38:08.194Z,21.56
2023-01-29T11:40:41.032Z,22.00
2023-01-29T11:43:29.253Z,20.57
2023-01-29T11:46:06.229Z,20.48
2023-01-29T11:48:59.222Z,20.30
2023-01-29T11:51:38.889Z,21.96
2023-01-29T11:54:20.322Z,20.07
2023-01-29T11:56:54.678Z,20.65
2023-01-29T11:59:26.874Z,20.72
2023-01-29T12:02:29.689Z,19.30
2023-01-29T12:05:14.596Z,19.47
2023-01-29T12:07:46.747Z,18.50
2023-01-29T12:10:40.630Z,17.89
2023-01-29T12:13:29.111Z,18.16
2023-01-29T12:16:33.398Z,17.14
2023-01-29T12:19:06.216Z,16.78
2023-01-29T12:22:04.020Z,16.71
2023-01-29T12:28:15.336Z,17.37
2023-01-29T12:31:36.526Z,16.56
2023-01-29T12:34:49.966Z,16.28
2023-01-29T12:37:38.315Z,18.14
2023-01-29T12:40:17.341Z,16.49
2023-01-29T12:43:05.516Z,15.82
2023-01-29T12:45:37.727Z,15.89
2023-01-29T12:48:33.346Z,15.47
2023-01-29T12:51:18.846Z,15.68
2023-01-29T12:53:59.638Z,15.26
2023-01-29T12:56:56.594Z,16.85
2023-01-29T13:03:29.835Z,18.06
2023-01-29T13:06:13.178Z,18.25
2023-01-29T13:11:52.639Z,18.99
2023-01-29T13:14:29.170Z,18.92
2023-01-29T13:17:26.051Z,18.61
2023-01-29T13:20:01.037Z,18.63
2023-01-29T13:22:36.403Z,19.43
2023-01-29T13:25:22.704Z,19.67
2023-01-29T13:27:56.748Z,19.49
2023-01-29T13:30:35.008Z,20.60
2023-01-29T13:33:15.761Z,20.48
2023-01-29T13:35:49.542Z,19.97
2023-01-29T13:38:47.970Z,19.04
2023-01-29T13:41:31.619Z,19.50
2023-01-29T13:44:16.051Z,19.55
2023-01-29T13:46:53.014Z,19.55
2023-01-29T13:50:05.790Z,20.54
2023-01-29T13:53:07.737Z,20.38
2023-01-29T13:55:42.659Z,19.66
2023-01-29T13:58:18.807Z,19.67
2023-01-29T14:01:00.392Z,20.04
2023-01-29T14:04:08.622Z,20.10
2023-01-29T14:06:43.371Z,19.45
2023-01-29T14:09:41.817Z,19.78
2023-01-29T14:15:26.329Z,19.97
2023-01-29T14:18:29.637Z,20.20
2023-01-29T14:21:34.173Z,20.47
2023-01-29T14:24:26.082Z,20.67
2023-01-29T14:27:10.966Z,21.37
2023-01-29T14:29:48.743Z,21.59
2023-01-29T14:32:25.369Z,21.83
2023-01-29T14:41:10.957Z,23.42
2023-01-29T14:43:38.250Z,23.67
2023-01-29T14:46:39.501Z,23.95
2023-01-29T14:49:12.487Z,24.31
2023-01-29T14:52:04.445Z,23.95
2023-01-29T14:54:42.429Z,24.76
2023-01-29T14:57:17.036Z,24.33
2023-01-29T14:59:59.660Z,24.66
2023-01-29T15:02:43.421Z,25.05
2023-01-29T15:05:36.334Z,25.88
2023-01-29T15:08:39.424Z,26.16
2023-01-29T15:11:53.779Z,26.11
2023-01-29T15:14:46.559Z,26.22
2023-01-29T15:17:34.027Z,26.35
2023-01-29T15:20:09.000Z,26.58
2023-01-29T15:22:43.223Z,28.19
2023-01-29T15:25:24.987Z,27.46
2023-01-29T15:27:58.874Z,28.33
2023-01-29T15:30:47.907Z,29.10
2023-01-29T15:33:25.777Z,28.16
2023-01-29T15:36:08.270Z,28.57
2023-01-29T15:38:36.861Z,29.85
2023-01-29T15:41:23.182Z,30.64
2023-01-29T15:44:23.673Z,31.69
2023-01-29T15:47:33.104Z,32.10
2023-01-29T15:50:00.890Z,31.66
2023-01-29T15:52:39.932Z,32.97
2023-01-29T15:55:31.791Z,33.95
2023-01-29T15:58:03.469Z,33.36
2023-01-29T16:00:38.834Z,33.96
2023-01-29T16:03:35.373Z,33.90
2023-01-29T16:06:05.417Z,32.99
2023-01-29T16:08:59.608Z,34.20
2023-01-29T16:11:29.109Z,34.37
2023-01-29T16:13:59.286Z,32.59
2023-01-29T16:16:28.291Z,32.83
2023-01-29T16:19:03.351Z,33.46
2023-01-29T16:21:36.969Z,33.41
2023-01-29T16:24:18.973Z,33.92
2023-01-29T16:27:17.719Z,34.12
2023-01-29T16:29:54.057Z,33.72
2023-01-29T16:32:26.092Z,34.01
2023-01-29T16:35:00.386Z,34.31
2023-01-29T16:37:36.619Z,34.50
2023-01-29T16:40:26.099Z,34.32
2023-01-29T16:43:20.655Z,34.87
2023-01-29T16:46:32.848Z,35.29
2023-01-29T16:49:30.388Z,35.91
2023-01-29T16:52:24.408Z,36.38
2023-01-29T16:54:55.751Z,35.35
2023-01-29T16:57:35.993Z,35.33
2023-01-29T17:00:18.718Z,35.78
2023-01-29T17:02:46.369Z,36.46
2023-01-29T17:05:53.677Z,36.19
2023-01-29T17:08:35.029Z,36.91
2023-01-29T17:11:07.412Z,37.25
2023-01-29T17:13:47.032Z,37.75
2023-01-29T17:16:29.574Z,37.86
2023-01-29T17:19:00.903Z,36.87
2023-01-29T17:21:38.920Z,38.70
2023-01-29T17:24:07.567Z,36.82
2023-01-29T17:27:13.550Z,38.28
2023-01-29T17:29:47.022Z,37.50
2023-01-29T17:34:59.644Z,37.84
2023-01-29T17:37:32.744Z,37.65
2023-01-29T17:40:39.069Z,39.08
2023-01-29T17:43:21.574Z,39.13
2023-01-29T17:45:48.971Z,38.14
2023-01-29T17:48:27.580Z,38.72
2023-01-29T17:51:07.667Z,38.07
2023-01-29T17:53:52.565Z,38.74
2023-01-29T17:56:30.849Z,38.64
2023-01-29T17:59:12.271Z,37.46
2023-01-29T18:01:56.502Z,38.33
2023-01-29T18:04:31.335Z,38.05
2023-01-29T18:06:59.558Z,39.05
2023-01-29T18:09:31.611Z,38.86
2023-01-29T18:12:01.955Z,38.16
2023-01-29T18:14:46.108Z,39.06
2023-01-29T18:20:33.589Z,38.39
2023-01-29T18:23:09.321Z,38.25
2023-01-29T18:25:39.895Z,39.18
2023-01-29T18:28:07.825Z,38.88
2023-01-29T18:30:47.441Z,38.55
2023-01-29T18:33:41.436Z,37.94
2023-01-29T18:38:53.352Z,38.59
2023-01-29T18:41:26.984Z,38.17
2023-01-29T18:43:54.522Z,39.12
2023-01-29T18:46:32.937Z,37.73
2023-01-29T18:49:14.605Z,38.74
2023-01-29T18:51:57.600Z,37.91
2023-01-29T18:54:29.787Z,38.26
2023-01-29T18:58:27.829Z,38.30
2023-01-29T19:00:27.732Z,37.85
2023-01-29T19:02:55.153Z,37.97
2023-01-29T19:05:24.051Z,38.60
2023-01-29T19:08:06.704Z,38.74
2023-01-29T19:10:40.940Z,38.86
2023-01-29T19:13:11.297Z,38.76
2023-01-29T19:15:43.660Z,38.67
2023-01-29T19:18:15.047Z,38.57
2023-01-29T19:20:42.906Z,38.42
2023-01-29T19:23:17.678Z,39.38
2023-01-29T19:25:49.583Z,38.65
2023-01-29T19:28:24.152Z,38.39
2023-01-29T19:31:02.242Z,39.16
2023-01-29T19:33:36.106Z,39.17
2023-01-29T19:36:13.907Z,38.55
2023-01-29T19:38:44.609Z,39.10
2023-01-29T19:41:12.020Z,38.87
2023-01-29T19:44:16.429Z,39.64
2023-01-29T19:47:14.123Z,39.28
2023-01-29T19:49:53.659Z,38.79
2023-01-29T19:52:50.124Z,38.54
2023-01-29T19:55:21.307Z,38.25
2023-01-29T19:57:58.971Z,38.58
2023-01-29T20:01:04.646Z,38.44
2023-01-29T20:03:35.171Z,38.22
2023-01-29T20:06:11.951Z,38.48
2023-01-29T20:08:58.821Z,38.40
2023-01-29T20:11:28.319Z,37.80
2023-01-29T20:13:59.156Z,37.75
2023-01-29T20:16:41.480Z,37.62
2023-01-29T20:19:14.474Z,38.08
2023-01-29T20:21:46.563Z,37.97
2023-01-29T20:24:24.277Z,37.78
2023-01-29T20:26:55.987Z,37.70
2023-01-29T20:29:29.266Z,37.74
2023-01-29T20:34:59.154Z,37.64
2023-01-29T20:37:27.672Z,37.15
2023-01-29T20:39:55.051Z,37.43
2023-01-29T20:42:34.880Z,37.63
2023-01-29T20:45:02.182Z,37.20
2023-01-29T20:47:54.500Z,37.90
2023-01-29T20:50:23.419Z,37.50
2023-01-29T20:52:53.549Z,37.71
2023-01-29T20:55:23.781Z,37.54
2023-01-29T20:58:05.761Z,37.46
2023-01-29T21:00:46.358Z,37.35
2023-01-29T21:03:22.072Z,37.52
2023-01-29T21:05:50.581Z,37.41
2023-01-29T21:08:26.180Z,37.13
2023-01-29T21:11:12.562Z,37.62
2023-01-29T21:13:49.432Z,37.32
2023-01-29T21:16:16.742Z,37.47
2023-01-29T21:18:53.735Z,37.07
2023-01-29T21:21:24.672Z,37.23
2023-01-29T21:26:58.860Z,37.20
2023-01-29T21:29:29.664Z,37.06
2023-01-29T21:32:07.479Z,37.09
2023-01-29T21:34:40.673Z,36.83
2023-01-29T21:37:14.263Z,37.01
2023-01-29T21:39:46.239Z,36.77
2023-01-29T21:42:34.904Z,36.83
2023-01-29T21:45:05.407Z,36.66
2023-01-29T21:47:32.568Z,36.63
2023-01-29T21:50:00.031Z,36.37
2023-01-29T21:52:27.212Z,36.54
2023-01-29T21:54:59.580Z,36.86
2023-01-29T21:57:29.332Z,36.34
2023-01-29T22:00:05.439Z,35.85
2023-01-29T22:02:56.650Z,36.24
2023-01-29T22:05:29.058Z,35.62
2023-01-29T22:07:56.883Z,36.11
2023-01-29T22:10:27.179Z,36.05
2023-01-29T22:12:57.325Z,36.26
2023-01-29T22:15:27.728Z,35.92
2023-01-29T22:17:55.386Z,36.10
2023-01-29T22:20:29.964Z,36.17
2023-01-29T22:23:03.174Z,36.17
2023-01-29T22:25:37.445Z,35.92
2023-01-29T22:28:06.178Z,35.79
2023-01-29T22:30:47.914Z,36.12
2023-01-29T22:33:44.052Z,35.91
2023-01-29T22:36:18.263Z,35.85
2023-01-29T22:38:47.394Z,35.72
2023-01-29T22:41:24.501Z,35.72
2023-01-29T22:46:46.494Z,35.04
2023-01-29T22:49:23.488Z,35.31
2023-01-29T22:55:01.502Z,35.68
2023-01-29T22:57:34.957Z,35.69
2023-01-29T23:00:10.344Z,35.78
2023-01-29T23:02:38.302Z,36.00
2023-01-29T23:05:10.146Z,35.82
2023-01-29T23:07:41.724Z,35.83
2023-01-29T23:13:31.799Z,35.92
2023-01-29T23:16:10.187Z,35.93
2023-01-29T23:18:42.326Z,36.16
2023-01-29T23:21:15.692Z,35.88
2023-01-29T23:23:50.317Z,36.00
2023-01-29T23:29:27.953Z,35.86
2023-01-29T23:31:55.388Z,35.77
2023-01-29T23:34:29.118Z,35.99
2023-01-29T23:36:56.598Z,36.05
2023-01-29T23:39:26.779Z,35.76
2023-01-29T23:41:54.153Z,35.40
2023-01-29T23:44:27.621Z,35.52
2023-01-29T23:49:36.791Z,35.36
2023-01-29T23:52:11.325Z,35.21
2023-01-29T23:54:38.993Z,35.82
2023-01-29T23:57:06.558Z,34.83
2023-01-29T23:59:57.340Z,34.84
